createdAt,value
2018-11-05T00:01:19.663Z,65.09
2018-11-05T00:03:47.747Z,64.98
2018-11-05T00:06:15.857Z,65.24
2018-11-05T00:08:43.999Z,65.17
2018-11-05T00:11:12.279Z,64.93
2018-11-05T00:13:40.631Z,65.17
2018-11-05T00:16:08.912Z,65.08
2018-11-05T00:18:37.123Z,65.29
2018-11-05T00:21:05.609Z,64.98
2018-11-05T00:23:33.707Z,65.21
2018-11-05T00:26:01.770Z,65.16
2018-11-05T00:28:29.939Z,64.72
2018-11-05T00:30:57.993Z,64.67
2018-11-05T00:33:26.057Z,64.89
2018-11-05T00:35:54.115Z,64.67
2018-11-05T00:38:22.332Z,64.88
2018-11-05T00:40:50.445Z,64.26
2018-11-05T00:43:18.480Z,64.63
2018-11-05T00:45:46.635Z,64.86
2018-11-05T00:48:14.661Z,64.72
2018-11-05T00:50:42.938Z,64.44
2018-11-05T00:53:11.049Z,64.86
2018-11-05T00:55:39.116Z,64.62
2018-11-05T00:58:07.251Z,64.37
2018-11-05T01:00:35.387Z,64.36
2018-11-05T01:03:03.471Z,64.44
2018-11-05T01:05:31.548Z,63.66
2018-11-05T01:07:59.600Z,64.05
2018-11-05T01:10:27.832Z,63.68
2018-11-05T01:12:55.895Z,64.01
2018-11-05T01:15:23.965Z,63.88
2018-11-05T01:17:52.071Z,64.44
2018-11-05T01:20:20.171Z,64.45
2018-11-05T01:22:48.301Z,64.79
2018-11-05T01:25:16.380Z,64.52
2018-11-05T01:27:44.459Z,64.27
2018-11-05T01:30:13.567Z,64.09
2018-11-05T01:32:41.681Z,64.59
2018-11-05T01:35:11.476Z,64.13
2018-11-05T01:37:39.566Z,64.41
2018-11-05T01:40:09.745Z,64.74
2018-11-05T01:42:38.223Z,64.91
2018-11-05T01:45:07.857Z,64.54
2018-11-05T01:47:35.980Z,64.77
2018-11-05T01:50:04.353Z,64.60
2018-11-05T01:52:32.469Z,65.02
2018-11-05T01:55:00.600Z,65.04
2018-11-05T01:57:28.709Z,65.12
2018-11-05T01:59:56.821Z,64.72
2018-11-05T02:02:24.924Z,64.70
2018-11-05T02:04:53.059Z,64.60
2018-11-05T02:07:21.173Z,64.53
2018-11-05T02:09:49.386Z,65.27
2018-11-05T02:12:17.509Z,65.71
2018-11-05T02:14:45.581Z,65.55
2018-11-05T02:17:13.749Z,65.44
2018-11-05T02:19:42.892Z,65.55
2018-11-05T02:22:11.276Z,65.66
2018-11-05T02:24:39.405Z,66.09
2018-11-05T02:27:07.559Z,65.70
2018-11-05T02:29:35.644Z,65.63
2018-11-05T02:32:03.764Z,65.89
2018-11-05T02:34:31.905Z,65.94
2018-11-05T02:37:00.132Z,66.27
2018-11-05T02:39:28.255Z,66.81
2018-11-05T02:41:56.354Z,66.19
2018-11-05T02:44:24.490Z,66.25
2018-11-05T02:46:52.826Z,66.48
2018-11-05T02:49:20.929Z,66.33
2018-11-05T02:51:49.012Z,66.72
2018-11-05T02:54:17.139Z,66.58
2018-11-05T02:56:45.252Z,67.45
2018-11-05T02:59:13.393Z,66.91
2018-11-05T03:01:41.489Z,67.04
2018-11-05T03:04:09.638Z,67.64
2018-11-05T03:06:37.744Z,67.52
2018-11-05T03:09:08.782Z,67.55
2018-11-05T03:11:37.063Z,67.38
2018-11-05T03:14:05.429Z,67.39
2018-11-05T03:16:33.579Z,67.62
2018-11-05T03:19:01.674Z,68.45
2018-11-05T03:21:29.764Z,68.59
2018-11-05T03:23:57.857Z,68.82
2018-11-05T03:26:25.928Z,68.34
2018-11-05T03:28:54.105Z,68.47
2018-11-05T03:31:22.369Z,68.29
2018-11-05T03:33:50.642Z,68.34
2018-11-05T03:36:18.745Z,68.18
2018-11-05T03:38:46.854Z,68.48
2018-11-05T03:41:14.999Z,68.45
2018-11-05T03:43:43.060Z,67.90
2018-11-05T03:46:11.184Z,68.31
2018-11-05T03:48:39.278Z,68.32
2018-11-05T03:51:07.381Z,67.94
2018-11-05T03:53:35.506Z,68.32
2018-11-05T03:56:03.675Z,67.70
2018-11-05T03:58:31.665Z,67.51
2018-11-05T04:00:59.803Z,68.03
2018-11-05T04:03:27.959Z,68.03
2018-11-05T04:05:55.979Z,67.99
2018-11-05T04:08:24.073Z,68.22
2018-11-05T04:10:52.150Z,68.28
2018-11-05T04:13:20.224Z,67.90
2018-11-05T04:15:48.408Z,68.49
2018-11-05T04:18:16.431Z,68.30
2018-11-05T04:20:44.501Z,68.26
2018-11-05T04:23:12.624Z,68.73
2018-11-05T04:25:40.689Z,68.35
2018-11-05T04:28:08.766Z,68.71
2018-11-05T04:30:36.837Z,68.38
2018-11-05T04:33:05.357Z,68.58
2018-11-05T04:35:33.438Z,68.49
2018-11-05T04:38:01.507Z,68.27
2018-11-05T04:40:29.713Z,68.63
2018-11-05T04:42:57.793Z,68.31
2018-11-05T04:45:25.921Z,68.47
2018-11-05T04:47:54.017Z,68.37
2018-11-05T04:50:22.110Z,68.66
2018-11-05T04:52:50.185Z,68.74
2018-11-05T04:55:18.314Z,68.25
2018-11-05T04:57:46.389Z,68.57
2018-11-05T05:00:16.798Z,68.56
2018-11-05T05:02:44.900Z,68.45
2018-11-05T05:05:14.185Z,68.73
2018-11-05T05:07:42.432Z,68.41
2018-11-05T05:10:10.975Z,68.01
2018-11-05T05:12:40.252Z,68.09
2018-11-05T05:15:08.740Z,68.47
2018-11-05T05:17:37.097Z,67.92
2018-11-05T05:20:07.829Z,67.84
2018-11-05T05:22:36.036Z,68.30
2018-11-05T05:25:04.117Z,67.93
2018-11-05T05:27:32.201Z,68.15
2018-11-05T05:30:00.316Z,68.15
2018-11-05T05:32:28.388Z,68.16
2018-11-05T05:34:56.533Z,68.05
2018-11-05T05:37:24.597Z,67.48
2018-11-05T05:39:52.681Z,68.20
2018-11-05T05:42:20.773Z,68.12
2018-11-05T05:44:48.854Z,67.93
2018-11-05T05:47:17.032Z,67.89
2018-11-05T05:49:45.093Z,67.82
2018-11-05T05:52:13.175Z,67.76
2018-11-05T05:54:41.246Z,67.67
2018-11-05T05:57:09.474Z,68.03
2018-11-05T05:59:37.559Z,68.36
2018-11-05T06:02:06.450Z,67.94
2018-11-05T06:04:34.576Z,68.22
2018-11-05T06:07:02.654Z,68.02
2018-11-05T06:09:30.750Z,67.94
2018-11-05T06:11:58.887Z,68.15
2018-11-05T06:14:26.999Z,67.30
2018-11-05T06:16:55.078Z,67.55
2018-11-05T06:19:23.118Z,68.07
2018-11-05T06:21:51.301Z,67.48
2018-11-05T06:24:19.253Z,67.43
2018-11-05T06:26:47.349Z,66.85
2018-11-05T06:29:15.433Z,67.26
2018-11-05T06:31:43.501Z,67.64
2018-11-05T06:34:11.585Z,66.76
2018-11-05T06:36:39.709Z,67.39
2018-11-05T06:39:11.459Z,67.39
2018-11-05T06:41:40.093Z,67.94
2018-11-05T06:44:08.305Z,67.82
2018-11-05T06:46:36.333Z,67.83
2018-11-05T06:49:04.488Z,67.83
2018-11-05T06:51:32.802Z,67.53
2018-11-05T06:54:00.881Z,67.71
2018-11-05T06:56:28.953Z,67.76
2018-11-05T06:58:57.053Z,67.75
2018-11-05T07:01:25.123Z,67.92
2018-11-05T07:03:53.200Z,68.06
2018-11-05T07:06:21.272Z,68.10
2018-11-05T07:08:49.348Z,67.36
2018-11-05T07:11:17.679Z,67.89
2018-11-05T07:13:45.646Z,68.15
2018-11-05T07:16:13.711Z,68.38
2018-11-05T07:18:42.006Z,68.18
2018-11-05T07:21:09.948Z,68.12
2018-11-05T07:23:38.205Z,67.67
2018-11-05T07:26:07.342Z,67.79
2018-11-05T07:28:35.458Z,67.71
2018-11-05T07:31:03.550Z,68.58
2018-11-05T07:33:31.774Z,67.63
2018-11-05T07:35:59.654Z,68.21
2018-11-05T07:38:27.729Z,67.80
2018-11-05T07:40:55.810Z,68.01
2018-11-05T07:43:23.910Z,68.08
2018-11-05T07:45:51.983Z,67.70
2018-11-05T07:48:20.058Z,67.66
2018-11-05T07:50:48.228Z,67.96
2018-11-05T07:53:16.324Z,67.42
2018-11-05T07:55:44.425Z,66.84
2018-11-05T07:58:12.521Z,67.13
2018-11-05T08:01:11.220Z,67.72
2018-11-05T08:03:39.296Z,67.63
2018-11-05T08:06:07.402Z,67.37
2018-11-05T08:08:35.478Z,67.65
2018-11-05T08:11:03.581Z,67.59
2018-11-05T08:13:31.640Z,67.57
2018-11-05T08:15:59.741Z,67.51
2018-11-05T08:18:27.804Z,66.93
2018-11-05T08:20:56.003Z,67.01
2018-11-05T08:23:24.308Z,67.67
2018-11-05T08:25:52.400Z,67.79
2018-11-05T08:28:20.459Z,67.03
2018-11-05T08:30:48.555Z,67.23
2018-11-05T08:33:16.810Z,67.74
2018-11-05T08:35:44.897Z,67.45
2018-11-05T08:38:13.001Z,67.72
2018-11-05T08:40:41.066Z,67.93
2018-11-05T08:43:09.162Z,68.24
2018-11-05T08:45:37.259Z,68.07
2018-11-05T08:48:05.328Z,68.01
2018-11-05T08:50:33.454Z,68.51
2018-11-05T08:53:01.525Z,68.00
2018-11-05T08:55:29.665Z,67.90
2018-11-05T08:57:57.752Z,67.95
2018-11-05T09:00:31.322Z,67.31
2018-11-05T09:02:59.434Z,67.86
2018-11-05T09:05:27.507Z,67.45
2018-11-05T09:07:56.230Z,67.27
2018-11-05T09:10:24.535Z,67.31
2018-11-05T09:12:52.440Z,67.77
2018-11-05T09:15:21.573Z,67.14
2018-11-05T09:17:49.704Z,66.89
2018-11-05T09:20:18.652Z,67.06
2018-11-05T09:22:47.457Z,67.19
2018-11-05T09:25:16.319Z,67.12
2018-11-05T09:27:44.487Z,66.66
2018-11-05T09:32:43.313Z,66.42
2018-11-05T09:35:11.417Z,66.31
2018-11-05T09:37:39.622Z,66.52
2018-11-05T09:40:10.085Z,66.27
2018-11-05T09:42:39.117Z,66.25
2018-11-05T09:45:09.916Z,66.04
2018-11-05T09:47:38.041Z,66.25
2018-11-05T09:50:07.400Z,65.37
2018-11-05T09:52:35.526Z,65.13
2018-11-05T09:55:03.595Z,64.81
2018-11-05T09:57:31.663Z,64.81
2018-11-05T09:59:59.769Z,64.18
2018-11-05T10:02:33.961Z,64.38
2018-11-05T10:05:02.255Z,64.80
2018-11-05T10:07:30.073Z,64.61
2018-11-05T10:09:58.148Z,64.22
2018-11-05T10:12:26.324Z,64.68
2018-11-05T10:14:54.404Z,64.09
2018-11-05T10:17:22.466Z,64.31
2018-11-05T10:19:50.581Z,63.89
2018-11-05T10:22:18.659Z,63.84
2018-11-05T10:24:46.845Z,64.15
2018-11-05T10:27:14.777Z,63.68
2018-11-05T10:29:42.839Z,63.75
2018-11-05T10:32:10.921Z,64.17
2018-11-05T10:34:39.034Z,64.57
2018-11-05T10:37:07.170Z,64.26
2018-11-05T10:39:35.283Z,64.18
2018-11-05T10:42:03.377Z,64.42
2018-11-05T10:44:31.445Z,64.60
2018-11-05T10:46:59.573Z,64.10
2018-11-05T10:49:27.674Z,63.92
2018-11-05T10:51:55.839Z,64.04
2018-11-05T10:54:23.824Z,63.46
2018-11-05T10:56:51.970Z,63.35
2018-11-05T10:59:20.037Z,63.02
2018-11-05T11:01:53.626Z,62.41
2018-11-05T11:04:27.051Z,61.60
2018-11-05T11:06:55.049Z,60.14
2018-11-05T11:09:23.149Z,59.15
2018-11-05T11:11:51.263Z,53.53
2018-11-05T11:14:19.360Z,47.89
2018-11-05T11:16:47.434Z,41.44
2018-11-05T11:19:15.593Z,37.28
2018-11-05T11:21:43.708Z,35.26
2018-11-05T11:24:11.847Z,32.67
2018-11-05T11:26:39.950Z,30.85
2018-11-05T11:29:08.219Z,28.28
2018-11-05T11:31:36.371Z,26.65
2018-11-05T11:34:04.453Z,26.34
2018-11-05T11:36:32.622Z,25.19
2018-11-05T11:39:00.670Z,27.24
2018-11-05T11:41:28.785Z,31.16
2018-11-05T11:43:56.869Z,34.29
2018-11-05T11:46:24.924Z,36.95
2018-11-05T11:48:52.992Z,41.78
2018-11-05T11:51:21.052Z,41.97
2018-11-05T11:53:49.158Z,43.48
2018-11-05T11:56:17.311Z,43.80
2018-11-05T11:58:45.473Z,44.61
2018-11-05T12:01:13.496Z,45.09
2018-11-05T12:03:41.602Z,46.02
2018-11-05T12:06:09.620Z,46.75
2018-11-05T12:08:37.724Z,49.76
2018-11-05T12:11:05.917Z,49.40
2018-11-05T12:13:34.084Z,49.41
2018-11-05T12:16:02.155Z,50.70
2018-11-05T12:18:30.217Z,52.50
2018-11-05T12:20:58.341Z,52.90
2018-11-05T12:23:26.443Z,53.46
2018-11-05T12:25:54.536Z,53.05
2018-11-05T12:28:22.599Z,54.13
2018-11-05T12:30:50.698Z,54.11
2018-11-05T12:33:18.842Z,53.80
2018-11-05T12:35:46.896Z,53.45
2018-11-05T12:38:14.973Z,54.52
2018-11-05T12:40:43.041Z,54.23
2018-11-05T12:43:11.161Z,53.98
2018-11-05T12:45:39.228Z,53.52
2018-11-05T12:48:07.302Z,53.20
2018-11-05T12:50:35.429Z,52.52
2018-11-05T12:53:03.510Z,52.67
2018-11-05T12:55:31.591Z,52.97
2018-11-05T12:57:59.721Z,52.77
2018-11-05T13:00:27.861Z,51.80
2018-11-05T13:02:58.305Z,51.28
2018-11-05T13:05:27.209Z,50.96
2018-11-05T13:07:55.317Z,50.73
2018-11-05T13:10:23.629Z,50.87
2018-11-05T13:12:51.713Z,50.51
2018-11-05T13:15:19.871Z,50.32
2018-11-05T13:17:47.933Z,50.34
2018-11-05T13:20:18.201Z,50.59
2018-11-05T13:22:46.688Z,50.94
2018-11-05T13:25:14.850Z,50.40
2018-11-05T13:27:44.270Z,50.62
2018-11-05T13:30:13.140Z,50.19
2018-11-05T13:32:41.640Z,50.17
2018-11-05T13:35:11.965Z,50.39
2018-11-05T13:37:40.462Z,50.33
2018-11-05T13:40:10.696Z,50.47
2018-11-05T13:42:38.827Z,51.24
2018-11-05T13:45:08.444Z,51.02
2018-11-05T13:47:37.208Z,50.37
2018-11-05T13:50:05.466Z,50.19
2018-11-05T13:52:33.371Z,50.49
2018-11-05T13:55:01.706Z,50.34
2018-11-05T13:57:29.415Z,49.92
2018-11-05T13:59:57.537Z,51.12
2018-11-05T14:02:25.673Z,51.14
2018-11-05T14:04:53.729Z,51.38
2018-11-05T14:07:21.813Z,51.23
2018-11-05T14:09:49.900Z,50.92
2018-11-05T14:12:18.005Z,51.56
2018-11-05T14:14:46.098Z,51.79
2018-11-05T14:17:14.213Z,51.86
2018-11-05T14:19:42.296Z,51.68
2018-11-05T14:22:10.444Z,52.28
2018-11-05T14:24:38.504Z,52.59
2018-11-05T14:27:06.640Z,53.07
2018-11-05T14:29:35.313Z,52.73
2018-11-05T14:32:02.855Z,52.39
2018-11-05T14:34:30.950Z,52.13
2018-11-05T14:36:59.139Z,52.50
2018-11-05T14:39:27.076Z,52.41
2018-11-05T14:41:55.131Z,52.34
2018-11-05T14:44:23.226Z,52.59
2018-11-05T14:46:51.291Z,52.60
2018-11-05T14:49:19.359Z,52.75
2018-11-05T14:51:47.482Z,53.10
2018-11-05T14:54:15.568Z,53.73
2018-11-05T14:56:43.649Z,53.96
2018-11-05T14:59:11.754Z,54.20
2018-11-05T15:01:39.823Z,54.00
2018-11-05T15:04:07.936Z,53.73
2018-11-05T15:06:36.032Z,53.88
2018-11-05T15:09:05.925Z,53.83
2018-11-05T15:11:34.009Z,53.83
2018-11-05T15:14:02.132Z,53.99
2018-11-05T15:16:30.183Z,54.00
2018-11-05T15:18:58.538Z,54.54
2018-11-05T15:21:26.436Z,54.58
2018-11-05T15:23:54.659Z,54.54
2018-11-05T15:26:22.773Z,54.68
2018-11-05T15:28:50.867Z,54.90
2018-11-05T15:31:18.960Z,54.88
2018-11-05T15:33:47.144Z,54.89
2018-11-05T15:36:15.201Z,54.61
2018-11-05T15:38:43.334Z,54.73
2018-11-05T15:41:11.511Z,54.90
2018-11-05T15:43:39.640Z,55.04
2018-11-05T15:46:08.140Z,55.46
2018-11-05T15:48:36.221Z,55.70
2018-11-05T15:51:04.480Z,55.86
2018-11-05T15:53:32.755Z,55.53
2018-11-05T15:56:00.634Z,55.88
2018-11-05T15:58:28.717Z,56.27
2018-11-05T16:00:56.817Z,56.54
2018-11-05T16:03:24.909Z,56.27
2018-11-05T16:05:53.010Z,56.83
2018-11-05T16:08:21.141Z,56.79
2018-11-05T16:10:49.302Z,56.95
2018-11-05T16:13:17.468Z,57.04
2018-11-05T16:15:45.544Z,57.16
2018-11-05T16:18:13.692Z,57.18
2018-11-05T16:20:41.830Z,57.20
2018-11-05T16:23:09.935Z,57.30
2018-11-05T16:25:38.080Z,57.65
2018-11-05T16:28:06.719Z,57.61
2018-11-05T16:30:34.846Z,57.33
2018-11-05T16:33:02.929Z,57.83
2018-11-05T16:35:31.087Z,57.83
2018-11-05T16:37:59.144Z,58.51
2018-11-05T16:40:27.275Z,58.35
2018-11-05T16:42:55.595Z,58.24
2018-11-05T16:45:23.834Z,58.33
2018-11-05T16:47:52.077Z,58.20
2018-11-05T16:50:22.068Z,58.31
2018-11-05T16:52:50.136Z,58.51
2018-11-05T16:55:18.292Z,58.56
2018-11-05T16:57:46.436Z,58.71
2018-11-05T17:00:15.110Z,58.81
2018-11-05T17:02:44.158Z,59.12
2018-11-05T17:05:12.077Z,59.05
2018-11-05T17:07:40.455Z,58.86
2018-11-05T17:10:10.201Z,59.10
2018-11-05T17:12:38.312Z,59.09
2018-11-05T17:15:08.245Z,59.24
2018-11-05T17:17:36.376Z,59.31
2018-11-05T17:20:05.456Z,59.27
2018-11-05T17:22:33.541Z,59.48
2018-11-05T17:25:01.637Z,59.43
2018-11-05T17:27:29.792Z,59.60
2018-11-05T17:29:58.136Z,59.65
2018-11-05T17:32:26.251Z,59.98
2018-11-05T17:34:54.365Z,60.33
2018-11-05T17:37:22.488Z,60.26
2018-11-05T17:39:50.584Z,60.19
2018-11-05T17:42:19.554Z,59.62
2018-11-05T17:44:47.708Z,59.59
2018-11-05T17:47:15.777Z,60.50
2018-11-05T17:49:43.889Z,60.07
2018-11-05T17:52:12.036Z,60.40
2018-11-05T17:54:40.138Z,59.72
2018-11-05T17:57:08.312Z,60.09
2018-11-05T17:59:36.324Z,60.52
2018-11-05T18:02:04.409Z,60.69
2018-11-05T18:04:32.651Z,60.37
2018-11-05T18:07:00.605Z,61.03
2018-11-05T18:09:28.960Z,60.80
2018-11-05T18:11:56.919Z,61.73
2018-11-05T18:14:25.053Z,61.78
2018-11-05T18:16:53.169Z,61.42
2018-11-05T18:19:21.304Z,61.62
2018-11-05T18:21:49.564Z,62.19
2018-11-05T18:24:17.745Z,61.95
2018-11-05T18:26:45.794Z,62.17
2018-11-05T18:29:13.942Z,62.55
2018-11-05T18:31:42.058Z,61.89
2018-11-05T18:34:10.334Z,61.33
2018-11-05T18:36:38.418Z,61.83
2018-11-05T18:39:08.720Z,62.13
2018-11-05T18:41:37.194Z,62.11
2018-11-05T18:44:05.420Z,62.53
2018-11-05T18:46:33.525Z,62.11
2018-11-05T18:49:01.614Z,61.79
2018-11-05T18:51:29.820Z,62.55
2018-11-05T18:53:57.902Z,62.67
2018-11-05T18:56:26.011Z,62.47
2018-11-05T18:58:54.100Z,62.20
2018-11-05T19:01:22.263Z,62.43
2018-11-05T19:03:50.526Z,62.48
2018-11-05T19:06:18.566Z,62.38
2018-11-05T19:08:46.653Z,62.20
2018-11-05T19:11:14.717Z,62.57
2018-11-05T19:13:42.848Z,62.46
2018-11-05T19:16:10.912Z,62.86
2018-11-05T19:18:38.972Z,62.98
2018-11-05T19:21:07.075Z,62.84
2018-11-05T19:23:35.275Z,63.34
2018-11-05T19:26:03.317Z,63.14
2018-11-05T19:28:31.458Z,62.94
2018-11-05T19:30:59.529Z,63.66
2018-11-05T19:33:27.723Z,63.85
2018-11-05T19:35:55.855Z,63.78
2018-11-05T19:38:23.849Z,63.85
2018-11-05T19:40:51.953Z,64.02
2018-11-05T19:43:20.058Z,63.91
2018-11-05T19:45:48.149Z,64.15
2018-11-05T19:48:16.248Z,64.09
2018-11-05T19:50:44.338Z,63.91
2018-11-05T19:53:12.447Z,64.02
2018-11-05T19:55:40.579Z,63.95
2018-11-05T19:58:08.796Z,64.29
2018-11-05T20:00:36.944Z,64.09
2018-11-05T20:03:05.426Z,64.51
2018-11-05T20:05:33.597Z,64.27
2018-11-05T20:08:01.662Z,64.93
2018-11-05T20:10:29.784Z,65.05
2018-11-05T20:12:57.852Z,65.32
2018-11-05T20:15:25.992Z,65.08
2018-11-05T20:17:54.922Z,65.12
2018-11-05T20:20:24.061Z,65.06
2018-11-05T20:22:52.290Z,65.18
2018-11-05T20:25:20.344Z,65.04
2018-11-05T20:27:48.439Z,64.88
2018-11-05T20:30:22.602Z,65.12
2018-11-05T20:32:51.867Z,64.99
2018-11-05T20:35:19.735Z,65.03
2018-11-05T20:37:47.865Z,65.50
2018-11-05T20:40:17.290Z,65.18
2018-11-05T20:42:46.383Z,65.47
2018-11-05T20:45:15.231Z,65.30
2018-11-05T20:47:43.693Z,65.53
2018-11-05T20:50:12.604Z,65.03
2018-11-05T20:52:40.745Z,65.22
2018-11-05T20:55:09.995Z,65.22
2018-11-05T20:57:38.557Z,64.42
2018-11-05T21:00:08.268Z,64.25
2018-11-05T21:02:36.402Z,63.92
2018-11-05T21:05:04.715Z,64.17
2018-11-05T21:07:32.875Z,64.92
2018-11-05T21:10:00.946Z,65.59
2018-11-05T21:12:29.309Z,66.02
2018-11-05T21:14:57.539Z,66.02
2018-11-05T21:17:25.589Z,65.80
2018-11-05T21:19:53.682Z,66.13
2018-11-05T21:22:21.828Z,65.78
2018-11-05T21:24:49.841Z,66.16
2018-11-05T21:27:18.121Z,66.29
2018-11-05T21:29:46.253Z,66.62
2018-11-05T21:32:14.398Z,66.21
2018-11-05T21:34:42.515Z,66.35
2018-11-05T21:37:10.561Z,66.03
2018-11-05T21:39:38.634Z,65.99
2018-11-05T21:42:06.856Z,65.82
2018-11-05T21:44:34.986Z,66.13
2018-11-05T21:47:03.057Z,65.61
2018-11-05T21:49:31.196Z,65.41
2018-11-05T21:51:59.281Z,65.73
2018-11-05T21:54:27.518Z,65.71
2018-11-05T21:56:55.580Z,65.83
2018-11-05T21:59:23.657Z,66.49
2018-11-05T22:01:51.845Z,67.08
2018-11-05T22:04:20.009Z,67.89
2018-11-05T22:06:48.079Z,67.91
2018-11-05T22:09:16.184Z,68.20
2018-11-05T22:11:44.281Z,68.57
2018-11-05T22:14:12.397Z,68.56
2018-11-05T22:16:40.472Z,68.63
2018-11-05T22:19:08.550Z,69.07
2018-11-05T22:21:36.696Z,68.80
2018-11-05T22:24:05.354Z,68.69
2018-11-05T22:26:33.464Z,69.05
2018-11-05T22:29:01.571Z,68.75
2018-11-05T22:31:29.729Z,68.85
2018-11-05T22:33:57.939Z,68.76
2018-11-05T22:36:26.081Z,68.27
2018-11-05T22:38:54.101Z,68.39
2018-11-05T22:41:22.229Z,67.81
2018-11-05T22:43:50.370Z,68.35
2018-11-05T22:46:18.528Z,68.29
2018-11-05T22:48:46.617Z,67.93
2018-11-05T22:51:14.745Z,68.44
2018-11-05T22:53:42.844Z,68.65
2018-11-05T22:56:10.949Z,68.66
2018-11-05T22:58:39.040Z,68.20
2018-11-05T23:01:08.515Z,68.28
2018-11-05T23:03:36.725Z,67.71
2018-11-05T23:06:04.809Z,67.93
2018-11-05T23:08:32.912Z,67.44
2018-11-05T23:11:01.428Z,68.08
2018-11-05T23:13:29.534Z,68.15
2018-11-05T23:15:57.597Z,68.01
2018-11-05T23:18:25.896Z,69.08
2018-11-05T23:20:54.025Z,69.54
2018-11-05T23:23:22.169Z,69.29
2018-11-05T23:25:50.323Z,68.94
2018-11-05T23:28:18.638Z,69.04
2018-11-05T23:30:46.725Z,68.97
2018-11-05T23:33:14.846Z,68.58
2018-11-05T23:35:42.884Z,68.84
2018-11-05T23:38:11.272Z,68.83
2018-11-05T23:40:39.412Z,69.05
2018-11-05T23:43:07.488Z,68.93
2018-11-05T23:45:35.600Z,68.76
2018-11-05T23:48:03.688Z,69.22
2018-11-05T23:50:31.812Z,69.12
2018-11-05T23:52:59.964Z,69.00
2018-11-05T23:55:27.997Z,69.28
2018-11-05T23:57:56.117Z,69.33
